createdAt,value
2022-08-07T00:00:06.148Z,75.24
2022-08-07T00:01:12.480Z,75.52
2022-08-07T00:02:39.984Z,76.25
2022-08-07T00:03:05.872Z,76.35
2022-08-07T00:04:26.837Z,77.11
2022-08-07T00:05:06.039Z,76.73
2022-08-07T00:06:05.664Z,77.30
2022-08-07T00:07:27.365Z,77.78
2022-08-07T00:08:05.515Z,77.15
2022-08-07T00:09:35.654Z,76.29
2022-08-07T00:10:25.460Z,76.00
2022-08-07T00:11:06.496Z,75.81
2022-08-07T00:12:26.187Z,75.62
2022-08-07T00:13:24.099Z,75.91
2022-08-07T00:14:30.512Z,76.29
2022-08-07T00:15:04.961Z,76.67
2022-08-07T00:16:05.026Z,75.71
2022-08-07T00:17:25.874Z,76.29
2022-08-07T00:18:04.722Z,76.20
2022-08-07T00:19:26.034Z,75.52
2022-08-07T00:20:04.571Z,75.24
2022-08-07T00:21:07.947Z,75.59
2022-08-07T00:22:35.542Z,76.35
2022-08-07T00:23:04.421Z,77.11
2022-08-07T00:24:25.259Z,77.59
2022-08-07T00:25:04.209Z,77.97
2022-08-07T00:26:12.819Z,77.40
2022-08-07T00:27:25.086Z,77.01
2022-08-07T00:28:03.987Z,76.92
2022-08-07T00:29:24.875Z,77.50
2022-08-07T00:30:03.879Z,77.21
2022-08-07T00:31:05.909Z,76.92
2022-08-07T00:32:24.624Z,76.16
2022-08-07T00:33:03.598Z,76.16
2022-08-07T00:34:24.483Z,76.06
2022-08-07T00:35:03.418Z,76.16
2022-08-07T00:36:03.334Z,76.10
2022-08-07T00:37:24.236Z,76.35
2022-08-07T00:38:03.195Z,76.82
2022-08-07T00:39:24.108Z,77.40
2022-08-07T00:40:03.038Z,76.82
2022-08-07T00:41:02.951Z,77.11
2022-08-07T00:42:28.942Z,77.59
2022-08-07T00:43:02.814Z,77.30
2022-08-07T00:44:23.711Z,77.11
2022-08-07T00:45:02.641Z,77.08
2022-08-07T00:46:02.557Z,77.36
2022-08-07T00:48:08.930Z,78.31
2022-08-07T00:48:09.083Z,78.41
2022-08-07T00:49:24.985Z,79.23
2022-08-07T00:50:19.536Z,79.71
2022-08-07T00:51:02.191Z,80.19
2022-08-07T00:52:23.088Z,80.28
2022-08-07T00:53:02.031Z,79.85
2022-08-07T00:54:22.922Z,79.75
2022-08-07T00:55:04.646Z,79.17
2022-08-07T00:56:02.600Z,79.80
2022-08-07T00:57:22.720Z,79.17
2022-08-07T00:58:01.650Z,79.17
2022-08-07T00:59:35.115Z,79.36
2022-08-07T01:00:01.485Z,79.36
2022-08-07T01:01:01.480Z,79.94
2022-08-07T01:02:28.903Z,80.22
2022-08-07T01:03:01.259Z,79.65
2022-08-07T01:04:24.990Z,79.56
2022-08-07T01:05:01.095Z,79.17
2022-08-07T01:06:01.023Z,79.46
2022-08-07T01:07:21.941Z,79.94
2022-08-07T01:08:00.860Z,80.32
2022-08-07T01:09:35.631Z,80.04
2022-08-07T01:10:06.690Z,79.65
2022-08-07T01:11:00.678Z,79.36
2022-08-07T01:12:30.139Z,79.17
2022-08-07T01:13:00.474Z,79.27
2022-08-07T01:14:28.262Z,79.75
2022-08-07T01:15:01.778Z,79.75
2022-08-07T01:16:01.081Z,80.13
2022-08-07T01:17:21.170Z,80.51
2022-08-07T01:18:00.095Z,80.22
2022-08-07T01:19:20.992Z,80.22
2022-08-07T01:19:59.946Z,79.46
2022-08-07T01:20:59.919Z,79.75
2022-08-07T01:22:22.936Z,80.47
2022-08-07T01:23:11.997Z,81.14
2022-08-07T01:24:21.586Z,80.95
2022-08-07T01:24:59.540Z,80.38
2022-08-07T01:25:59.458Z,79.99
2022-08-07T01:27:20.385Z,80.28
2022-08-07T01:27:59.583Z,80.95
2022-08-07T01:29:20.234Z,82.09
2022-08-07T01:29:59.168Z,82.29
2022-08-07T01:30:59.085Z,82.57
2022-08-07T01:32:19.967Z,82.38
2022-08-07T01:32:58.927Z,82.19
2022-08-07T01:34:19.844Z,82.19
2022-08-07T01:34:58.773Z,81.71
2022-08-07T01:36:06.311Z,82.15
2022-08-07T01:37:20.116Z,82.24
2022-08-07T01:37:58.548Z,82.76
2022-08-07T01:39:19.466Z,82.29
2022-08-07T01:39:58.439Z,82.67
2022-08-07T01:40:58.303Z,82.38
2022-08-07T01:42:37.605Z,82.76
2022-08-07T01:42:59.026Z,82.38
2022-08-07T01:44:19.055Z,82.95
2022-08-07T01:44:58.010Z,82.09
2022-08-07T01:45:58.670Z,82.09
2022-08-07T01:48:20.696Z,82.00
2022-08-07T01:48:29.654Z,82.67
2022-08-07T01:49:18.719Z,82.57
2022-08-07T01:49:57.585Z,82.29
2022-08-07T01:50:57.542Z,82.29
2022-08-07T01:52:18.415Z,82.76
2022-08-07T01:52:57.365Z,82.86
2022-08-07T01:54:32.650Z,82.57
2022-08-07T01:54:58.952Z,82.19
2022-08-07T01:55:57.122Z,82.57
2022-08-07T01:57:24.632Z,82.76
2022-08-07T01:58:06.083Z,82.95
2022-08-07T01:59:17.893Z,82.57
2022-08-07T01:59:56.834Z,82.67
2022-08-07T02:01:09.228Z,82.29
2022-08-07T02:03:11.314Z,82.57
2022-08-07T02:03:18.554Z,82.43
2022-08-07T02:04:17.595Z,82.24
2022-08-07T02:04:57.414Z,82.63
2022-08-07T02:06:01.042Z,82.38
2022-08-07T02:07:17.255Z,82.82
2022-08-07T02:07:56.184Z,82.53
2022-08-07T02:09:33.904Z,82.00
2022-08-07T02:09:58.730Z,82.63
2022-08-07T02:10:57.961Z,82.91
2022-08-07T02:12:17.846Z,82.43
2022-08-07T02:12:55.822Z,82.82
2022-08-07T02:14:40.172Z,82.82
2022-08-07T02:14:55.660Z,83.11
2022-08-07T02:15:55.562Z,82.43
2022-08-07T02:17:24.901Z,82.53
2022-08-07T02:17:55.411Z,82.63
2022-08-07T02:20:05.058Z,83.11
2022-08-07T02:20:05.311Z,83.20
2022-08-07T02:20:57.353Z,83.11
2022-08-07T02:22:18.471Z,82.91
2022-08-07T02:22:55.337Z,82.91
2022-08-07T02:24:17.697Z,83.67
2022-08-07T02:24:54.866Z,83.11
2022-08-07T02:26:31.905Z,83.77
2022-08-07T02:27:15.693Z,82.91
2022-08-07T02:27:54.627Z,82.91
2022-08-07T02:29:15.539Z,82.91
2022-08-07T02:29:55.109Z,83.01
2022-08-07T02:30:54.419Z,82.63
2022-08-07T02:32:15.310Z,82.87
2022-08-07T02:33:03.895Z,82.49
2022-08-07T02:34:18.023Z,82.49
2022-08-07T02:34:54.093Z,82.97
2022-08-07T02:36:28.564Z,83.44
2022-08-07T02:37:14.933Z,84.20
2022-08-07T02:37:53.849Z,83.44
2022-08-07T02:39:17.382Z,82.78
2022-08-07T02:40:12.117Z,84.30
2022-08-07T02:40:55.948Z,84.59
2022-08-07T02:42:14.948Z,84.49
2022-08-07T02:42:53.483Z,85.16
2022-08-07T02:44:14.377Z,85.35
2022-08-07T02:44:53.306Z,84.88
2022-08-07T02:46:00.982Z,84.69
2022-08-07T02:47:19.584Z,84.69
2022-08-07T02:47:53.080Z,85.45
2022-08-07T02:49:28.842Z,85.93
2022-08-07T02:49:59.060Z,85.64
2022-08-07T02:50:52.839Z,84.88
2022-08-07T02:52:13.735Z,84.64
2022-08-07T02:52:52.689Z,84.83
2022-08-07T02:54:13.613Z,85.50
2022-08-07T02:54:52.529Z,86.16
2022-08-07T02:56:04.137Z,87.12
2022-08-07T02:57:13.501Z,86.30
2022-08-07T02:57:52.299Z,84.69
2022-08-07T02:59:13.200Z,84.92
2022-08-07T03:00:00.993Z,85.69
2022-08-07T03:00:52.137Z,86.02
2022-08-07T03:02:13.002Z,86.21
2022-08-07T03:02:54.667Z,85.93
2022-08-07T03:04:14.018Z,84.16
2022-08-07T03:04:51.743Z,84.92
2022-08-07T03:05:51.653Z,85.97
2022-08-07T03:07:12.582Z,85.78
2022-08-07T03:08:07.000Z,86.65
2022-08-07T03:09:12.439Z,86.93
2022-08-07T03:09:52.638Z,85.41
2022-08-07T03:10:51.290Z,86.07
2022-08-07T03:12:21.609Z,85.97
2022-08-07T03:12:51.904Z,86.55
2022-08-07T03:14:12.021Z,87.31
2022-08-07T03:14:52.441Z,87.50
2022-08-07T03:15:58.330Z,86.93
2022-08-07T03:17:11.791Z,87.12
2022-08-07T03:17:52.829Z,86.36
2022-08-07T03:19:11.625Z,86.65
2022-08-07T03:19:54.596Z,86.16
2022-08-07T03:20:50.494Z,86.11
2022-08-07T03:22:18.821Z,87.02
2022-08-07T03:22:50.545Z,86.83
2022-08-07T03:24:17.444Z,86.16
2022-08-07T03:24:50.186Z,85.60
2022-08-07T03:25:50.815Z,86.26
2022-08-07T03:27:11.003Z,85.41
2022-08-07T03:28:09.075Z,85.31
2022-08-07T03:29:11.284Z,85.60
2022-08-07T03:29:51.265Z,86.16
2022-08-07T03:30:49.702Z,86.65
2022-08-07T03:32:12.976Z,87.31
2022-08-07T03:32:58.564Z,87.12
2022-08-07T03:34:10.448Z,87.40
2022-08-07T03:35:17.138Z,87.50
2022-08-07T03:35:50.102Z,86.65
2022-08-07T03:37:12.316Z,86.83
2022-08-07T03:37:53.536Z,87.40
2022-08-07T03:39:10.087Z,87.88
2022-08-07T03:40:13.452Z,87.79
2022-08-07T03:40:53.810Z,87.79
2022-08-07T03:42:09.814Z,88.07
2022-08-07T03:42:49.364Z,89.40
2022-08-07T03:44:09.665Z,89.69
2022-08-07T03:44:53.660Z,90.17
2022-08-07T03:45:48.835Z,89.12
2022-08-07T03:47:11.082Z,88.07
2022-08-07T03:47:51.387Z,87.31
2022-08-07T03:49:09.266Z,85.88
2022-08-07T03:49:52.318Z,83.59
2022-08-07T03:50:52.149Z,82.73
2022-08-07T03:52:22.340Z,83.65
2022-08-07T03:52:47.986Z,84.31
2022-08-07T03:54:35.335Z,86.22
2022-08-07T03:54:54.210Z,87.27
2022-08-07T03:55:58.027Z,87.36
2022-08-07T03:57:08.649Z,88.12
2022-08-07T03:58:33.315Z,88.12
2022-08-07T03:59:13.311Z,87.27
2022-08-07T04:00:01.690Z,84.79
2022-08-07T04:00:53.319Z,86.03
2022-08-07T04:02:08.245Z,86.88
2022-08-07T04:02:49.453Z,88.03
2022-08-07T04:04:08.069Z,89.36
2022-08-07T04:04:47.036Z,89.17
2022-08-07T04:05:46.960Z,89.26
2022-08-07T04:07:16.680Z,89.84
2022-08-07T04:07:47.624Z,88.51
2022-08-07T04:09:15.310Z,88.12
2022-08-07T04:09:50.439Z,88.70
2022-08-07T04:10:54.090Z,89.26
2022-08-07T04:12:26.570Z,89.26
2022-08-07T04:12:46.409Z,88.70
2022-08-07T04:14:10.700Z,88.03
2022-08-07T04:14:47.837Z,88.03
2022-08-07T04:15:49.018Z,88.98
2022-08-07T04:17:21.337Z,88.70
2022-08-07T04:18:56.177Z,88.70
2022-08-07T04:19:14.761Z,88.03
2022-08-07T04:19:52.227Z,88.22
2022-08-07T04:20:54.418Z,88.70
2022-08-07T04:22:12.184Z,88.79
2022-08-07T04:22:53.113Z,89.65
2022-08-07T04:24:07.702Z,90.22
2022-08-07T04:24:45.457Z,89.69
2022-08-07T04:25:45.364Z,89.07
2022-08-07T04:27:06.262Z,89.07
2022-08-07T04:27:46.222Z,89.31
2022-08-07T04:29:06.127Z,89.60
2022-08-07T04:29:48.909Z,90.74
2022-08-07T04:30:57.409Z,90.93
2022-08-07T04:32:10.773Z,90.26
2022-08-07T04:32:47.951Z,89.79
2022-08-07T04:34:05.707Z,89.89
2022-08-07T04:34:44.658Z,90.55
2022-08-07T04:35:44.583Z,90.64
2022-08-07T04:37:08.127Z,90.64
2022-08-07T04:38:03.418Z,90.64
2022-08-07T04:39:05.374Z,90.17
2022-08-07T04:39:47.930Z,91.03
2022-08-07T04:40:51.435Z,90.45
2022-08-07T04:42:05.099Z,90.45
2022-08-07T04:42:44.009Z,90.84
2022-08-07T04:44:12.743Z,90.84
2022-08-07T04:44:54.592Z,90.74
2022-08-07T04:45:57.316Z,91.03
2022-08-07T04:47:08.653Z,90.55
2022-08-07T04:47:57.168Z,90.64
2022-08-07T04:49:07.557Z,90.84
2022-08-07T04:49:47.621Z,91.03
2022-08-07T04:50:43.395Z,90.84
2022-08-07T04:52:04.306Z,91.13
2022-08-07T04:52:51.180Z,91.13
2022-08-07T04:54:06.362Z,91.50
2022-08-07T04:54:43.058Z,91.31
2022-08-07T04:58:10.352Z,92.55
2022-08-07T04:58:10.523Z,92.74
2022-08-07T04:58:12.544Z,92.36
2022-08-07T05:00:07.734Z,92.69
2022-08-07T05:00:12.441Z,92.46
2022-08-07T05:00:42.637Z,92.41
2022-08-07T05:02:03.497Z,92.22
2022-08-07T05:02:43.452Z,92.32
2022-08-07T05:04:07.296Z,92.50
2022-08-07T05:04:47.076Z,92.22
2022-08-07T05:05:54.553Z,92.12
2022-08-07T05:07:09.578Z,92.69
2022-08-07T05:07:48.187Z,92.69
2022-08-07T05:09:02.936Z,92.50
2022-08-07T05:09:45.709Z,92.41
2022-08-07T05:10:41.820Z,92.79
2022-08-07T05:12:02.748Z,92.22
2022-08-07T05:12:51.338Z,92.12
2022-08-07T05:14:52.971Z,92.69
2022-08-07T05:14:54.052Z,92.69
2022-08-07T05:15:41.434Z,92.79
2022-08-07T05:17:02.340Z,93.08
2022-08-07T05:17:52.204Z,93.08
2022-08-07T05:19:02.158Z,92.69
2022-08-07T05:19:45.137Z,92.32
2022-08-07T05:20:41.025Z,92.69
2022-08-07T05:22:04.668Z,93.02
2022-08-07T05:22:40.851Z,92.41
2022-08-07T05:24:01.760Z,92.60
2022-08-07T05:24:40.860Z,93.41
2022-08-07T05:26:11.203Z,93.51
2022-08-07T05:27:01.519Z,93.60
2022-08-07T05:28:03.046Z,94.27
2022-08-07T05:29:04.276Z,94.36
2022-08-07T05:29:51.193Z,93.98
2022-08-07T05:30:40.246Z,94.56
2022-08-07T05:32:01.138Z,96.08
2022-08-07T05:32:40.063Z,95.79
2022-08-07T05:34:05.534Z,96.46
2022-08-07T05:34:39.929Z,96.37
2022-08-07T05:35:42.129Z,96.27
2022-08-07T05:37:00.731Z,95.89
2022-08-07T05:37:42.291Z,96.08
2022-08-07T05:40:05.793Z,95.98
2022-08-07T05:40:13.526Z,95.41
2022-08-07T05:40:42.791Z,96.13
2022-08-07T05:42:03.809Z,96.22
2022-08-07T05:42:39.375Z,95.65
2022-08-07T05:44:11.789Z,95.56
2022-08-07T05:44:46.373Z,95.36
2022-08-07T05:45:46.956Z,94.70
2022-08-07T05:47:01.044Z,95.65
2022-08-07T05:48:01.525Z,94.98
2022-08-07T05:48:59.908Z,95.17
2022-08-07T05:49:41.120Z,94.70
2022-08-07T05:50:39.340Z,94.22
2022-08-07T05:51:59.563Z,93.84
2022-08-07T05:52:38.506Z,93.79
2022-08-07T05:54:09.571Z,93.50
2022-08-07T05:54:44.334Z,93.60
2022-08-07T05:56:01.809Z,93.41
2022-08-07T05:56:59.180Z,93.21
2022-08-07T05:57:42.335Z,92.74
2022-08-07T05:58:58.999Z,92.36
2022-08-07T05:59:38.956Z,92.16
2022-08-07T06:00:37.982Z,91.97
2022-08-07T06:02:00.556Z,91.78
2022-08-07T06:02:37.758Z,92.11
2022-08-07T06:04:01.111Z,92.59
2022-08-07T06:04:37.548Z,90.78
2022-08-07T06:05:37.481Z,90.49
2022-08-07T06:07:03.667Z,89.06
2022-08-07T06:08:14.034Z,87.53
2022-08-07T06:08:58.296Z,86.86
2022-08-07T06:10:04.488Z,85.90
2022-08-07T06:10:37.094Z,85.47
2022-08-07T06:11:58.012Z,85.09
2022-08-07T06:12:36.932Z,84.80
2022-08-07T06:14:12.958Z,84.13
2022-08-07T06:14:36.784Z,83.17
2022-08-07T06:15:39.336Z,82.60
2022-08-07T06:16:58.501Z,82.89
2022-08-07T06:17:37.985Z,82.51
2022-08-07T06:18:57.432Z,82.31
2022-08-07T06:19:52.353Z,82.03
2022-08-07T06:20:49.913Z,82.26
2022-08-07T06:22:17.020Z,80.63
2022-08-07T06:22:40.090Z,78.91
2022-08-07T06:24:41.901Z,78.81
2022-08-07T06:24:46.053Z,78.53
2022-08-07T06:25:36.148Z,78.91
2022-08-07T06:26:56.815Z,78.24
2022-08-07T06:27:43.946Z,78.05
2022-08-07T06:28:56.656Z,77.13
2022-08-07T06:29:38.880Z,77.70
2022-08-07T06:30:38.093Z,77.99
2022-08-07T06:31:56.450Z,77.42
2022-08-07T06:32:35.386Z,76.37
2022-08-07T06:33:56.276Z,76.46
2022-08-07T06:34:35.208Z,76.56
2022-08-07T06:35:45.497Z,76.69
2022-08-07T06:36:56.034Z,76.69
2022-08-07T06:37:44.474Z,75.93
2022-08-07T06:38:58.993Z,75.73
2022-08-07T06:40:17.561Z,75.45
2022-08-07T06:40:35.185Z,76.31
2022-08-07T06:42:02.409Z,76.21
2022-08-07T06:42:35.213Z,75.45
2022-08-07T06:43:59.429Z,74.52
2022-08-07T06:44:36.679Z,74.43
2022-08-07T06:45:35.818Z,74.24
2022-08-07T06:47:09.866Z,74.24
2022-08-07T06:47:38.761Z,73.19
2022-08-07T06:48:55.101Z,73.38
2022-08-07T06:49:34.076Z,72.99
2022-08-07T06:50:36.098Z,74.08
2022-08-07T06:51:59.419Z,74.08
2022-08-07T06:52:35.931Z,73.22
2022-08-07T06:55:29.404Z,73.13
2022-08-07T06:55:33.474Z,72.36
2022-08-07T06:55:48.277Z,71.98
2022-08-07T06:56:54.486Z,71.82
2022-08-07T06:57:43.616Z,71.63
2022-08-07T07:00:11.473Z,70.96
2022-08-07T07:00:13.501Z,71.05
2022-08-07T07:00:33.198Z,70.86
2022-08-07T07:01:54.179Z,70.67
2022-08-07T07:02:53.586Z,70.09
2022-08-07T07:03:58.119Z,70.29
2022-08-07T07:04:34.037Z,71.15
2022-08-07T07:06:04.435Z,71.63
2022-08-07T07:07:00.033Z,71.19
2022-08-07T07:07:59.901Z,70.90
2022-08-07T07:08:53.571Z,70.90
2022-08-07T07:09:32.508Z,70.51
2022-08-07T07:10:32.420Z,71.28
2022-08-07T07:12:09.095Z,72.24
2022-08-07T07:12:33.643Z,71.22
2022-08-07T07:13:57.808Z,70.36
2022-08-07T07:14:32.123Z,69.40
2022-08-07T07:15:35.842Z,68.63
2022-08-07T07:16:53.492Z,68.91
2022-08-07T07:17:39.125Z,69.20
2022-08-07T07:18:52.813Z,69.49
2022-08-07T07:19:55.736Z,69.24
2022-08-07T07:20:31.694Z,67.70
2022-08-07T07:22:05.000Z,67.13
2022-08-07T07:22:34.480Z,67.51
2022-08-07T07:24:08.870Z,67.45
2022-08-07T07:24:32.064Z,66.68
2022-08-07T07:26:32.783Z,66.87
2022-08-07T07:26:52.559Z,66.39
2022-08-07T07:27:35.816Z,65.53
2022-08-07T07:29:40.717Z,65.81
2022-08-07T07:29:56.712Z,65.43
2022-08-07T07:30:38.098Z,65.66
2022-08-07T07:31:51.826Z,64.12
2022-08-07T07:32:30.745Z,64.60
2022-08-07T07:33:56.401Z,64.50
2022-08-07T07:34:31.921Z,63.86
2022-08-07T07:35:33.581Z,63.38
2022-08-07T07:36:53.919Z,63.48
2022-08-07T07:37:47.377Z,63.38
2022-08-07T07:38:51.270Z,61.97
2022-08-07T07:39:45.459Z,61.49
2022-08-07T07:40:30.145Z,61.39
2022-08-07T07:42:08.642Z,61.49
2022-08-07T07:42:32.476Z,62.19
2022-08-07T07:44:17.223Z,61.42
2022-08-07T07:44:29.839Z,59.78
2022-08-07T07:46:39.741Z,58.24
2022-08-07T07:46:57.200Z,58.56
2022-08-07T07:47:29.628Z,55.19
2022-08-07T07:48:50.557Z,54.52
2022-08-07T07:50:34.945Z,54.80
2022-08-07T07:50:39.002Z,55.41
2022-08-07T07:51:58.180Z,56.57
2022-08-07T07:52:29.482Z,56.27
2022-08-07T07:53:52.035Z,56.40
2022-08-07T07:54:29.093Z,53.99
2022-08-07T07:55:37.741Z,52.83
2022-08-07T07:56:49.928Z,53.05
2022-08-07T07:57:51.770Z,52.76
2022-08-07T07:58:50.630Z,51.51
2022-08-07T07:59:52.092Z,51.80
2022-08-07T08:00:29.569Z,53.08
2022-08-07T08:02:04.700Z,51.53
2022-08-07T08:02:34.133Z,50.18
2022-08-07T08:04:11.053Z,50.96
2022-08-07T08:04:28.405Z,50.76
2022-08-07T08:05:30.226Z,50.40
2022-08-07T08:06:50.646Z,49.05
2022-08-07T08:07:35.484Z,47.09
2022-08-07T08:08:49.014Z,46.90
2022-08-07T08:09:29.664Z,47.99
2022-08-07T08:10:37.680Z,48.76
2022-08-07T08:12:02.070Z,47.31
2022-08-07T08:12:51.605Z,46.92
2022-08-07T08:13:53.695Z,46.83
2022-08-07T08:14:27.613Z,47.41
2022-08-07T08:15:27.547Z,47.02
2022-08-07T08:16:50.674Z,47.02
2022-08-07T08:18:17.666Z,47.12
2022-08-07T08:18:50.330Z,47.22
2022-08-07T08:20:16.289Z,47.60
2022-08-07T08:20:31.835Z,47.60
2022-08-07T08:22:00.421Z,47.41
2022-08-07T08:22:32.565Z,46.64
2022-08-07T08:23:48.010Z,46.06
2022-08-07T08:24:36.652Z,45.86
2022-08-07T08:25:42.929Z,46.54
2022-08-07T08:26:50.471Z,46.15
2022-08-07T08:27:33.508Z,46.54
2022-08-07T08:28:47.545Z,46.08
2022-08-07T08:29:26.508Z,45.40
2022-08-07T08:30:26.445Z,45.59
2022-08-07T08:32:17.550Z,45.79
2022-08-07T08:32:38.596Z,45.50
2022-08-07T08:33:49.498Z,45.50
2022-08-07T08:34:27.219Z,45.57
2022-08-07T08:35:28.472Z,45.50
2022-08-07T08:36:47.005Z,46.17
2022-08-07T08:37:59.681Z,46.08
2022-08-07T08:38:46.846Z,46.00
2022-08-07T08:39:25.832Z,45.01
2022-08-07T08:40:28.593Z,45.21
2022-08-07T08:41:57.158Z,45.31
2022-08-07T08:42:25.868Z,45.42
2022-08-07T08:43:56.088Z,45.40
2022-08-07T08:44:29.721Z,46.10
2022-08-07T08:45:26.905Z,46.00
2022-08-07T08:46:46.242Z,45.04
2022-08-07T08:47:25.359Z,44.73
2022-08-07T08:48:46.127Z,45.11
2022-08-07T08:49:32.933Z,45.89
2022-08-07T08:50:28.272Z,45.69
2022-08-07T08:52:13.434Z,47.33
2022-08-07T08:52:24.833Z,46.68
2022-08-07T08:53:45.871Z,44.56
2022-08-07T08:54:24.711Z,44.19
2022-08-07T08:55:53.156Z,43.80
2022-08-07T08:56:47.197Z,43.51
2022-08-07T08:57:24.466Z,43.51
2022-08-07T08:58:45.408Z,43.41
2022-08-07T08:59:24.316Z,44.09
2022-08-07T09:00:24.501Z,45.54
2022-08-07T09:01:49.159Z,46.05
2022-08-07T09:02:34.622Z,43.82
2022-08-07T09:03:49.761Z,43.05
2022-08-07T09:04:25.855Z,43.41
2022-08-07T09:05:37.528Z,44.70
2022-08-07T09:06:47.941Z,44.02
2022-08-07T09:07:27.121Z,44.60
2022-08-07T09:08:46.878Z,42.37
2022-08-07T09:09:30.235Z,43.07
2022-08-07T09:10:23.555Z,42.68
2022-08-07T09:11:53.246Z,42.00
2022-08-07T09:12:31.741Z,42.40
2022-08-07T09:13:44.319Z,42.00
2022-08-07T09:14:23.253Z,41.82
2022-08-07T09:16:25.605Z,41.72
2022-08-07T09:16:44.116Z,41.52
2022-08-07T09:17:23.047Z,41.91
2022-08-07T09:18:52.909Z,43.46
2022-08-07T09:19:53.032Z,43.07
2022-08-07T09:20:35.402Z,42.51
2022-08-07T09:22:09.875Z,42.90
2022-08-07T09:24:28.473Z,43.19
2022-08-07T09:24:33.900Z,42.05
2022-08-07T09:24:54.518Z,43.21
2022-08-07T09:25:24.239Z,41.86
2022-08-07T09:26:47.501Z,41.39
2022-08-07T09:27:22.406Z,40.69
2022-08-07T09:30:04.319Z,40.11
2022-08-07T09:30:06.113Z,39.72
2022-08-07T09:30:28.131Z,40.40
2022-08-07T09:31:49.152Z,43.02
2022-08-07T09:32:21.974Z,43.52
2022-08-07T09:33:57.175Z,42.55
2022-08-07T09:34:21.851Z,40.81
2022-08-07T09:36:04.742Z,40.61
2022-08-07T09:36:43.117Z,40.61
2022-08-07T09:37:47.793Z,39.72
2022-08-07T09:38:42.545Z,39.04
2022-08-07T09:39:52.651Z,39.32
2022-08-07T09:40:21.415Z,40.67
2022-08-07T09:41:43.314Z,40.38
2022-08-07T09:42:22.968Z,40.28
2022-08-07T09:44:06.714Z,39.82
2022-08-07T09:44:32.747Z,40.50
2022-08-07T09:47:24.395Z,40.50
2022-08-07T09:47:55.116Z,39.22
2022-08-07T09:47:55.666Z,39.14
2022-08-07T09:48:55.866Z,40.59
2022-08-07T09:50:00.490Z,40.01
2022-08-07T09:50:20.715Z,39.70
2022-08-07T09:52:15.631Z,40.00
2022-08-07T09:52:34.359Z,39.82
2022-08-07T09:53:47.965Z,40.01
2022-08-07T09:54:20.426Z,39.82
2022-08-07T09:55:29.775Z,41.66
2022-08-07T09:56:41.983Z,41.76
2022-08-07T09:57:20.220Z,40.50
2022-08-07T09:58:42.452Z,39.82
2022-08-07T09:59:22.048Z,39.70
2022-08-07T10:00:20.024Z,41.66
2022-08-07T10:01:53.116Z,42.14
2022-08-07T10:02:19.885Z,39.92
2022-08-07T10:04:06.247Z,40.42
2022-08-07T10:04:28.069Z,40.81
2022-08-07T10:05:29.770Z,40.61
2022-08-07T10:06:40.585Z,40.73
2022-08-07T10:07:25.998Z,41.22
2022-08-07T10:08:40.444Z,39.59
2022-08-07T10:09:34.244Z,39.39
2022-08-07T10:10:21.404Z,39.28
2022-08-07T10:11:59.802Z,38.02
2022-08-07T10:12:21.941Z,38.02
2022-08-07T10:14:00.303Z,40.54
2022-08-07T10:14:23.053Z,39.47
2022-08-07T10:15:19.077Z,39.47
2022-08-07T10:16:39.878Z,39.37
2022-08-07T10:17:18.817Z,38.89
2022-08-07T10:18:39.735Z,39.86
2022-08-07T10:19:18.677Z,40.05
2022-08-07T10:20:22.156Z,39.95
2022-08-07T10:22:14.033Z,38.70
2022-08-07T10:22:18.468Z,39.47
2022-08-07T10:24:05.694Z,39.86
2022-08-07T10:24:21.387Z,39.28
2022-08-07T10:25:22.533Z,39.18
2022-08-07T10:26:39.196Z,39.88
2022-08-07T10:27:18.123Z,39.59
2022-08-07T10:28:39.051Z,39.29
2022-08-07T10:29:17.994Z,38.71
2022-08-07T10:30:17.906Z,38.32
2022-08-07T10:31:39.290Z,38.62
2022-08-07T10:32:36.855Z,39.39
2022-08-07T10:34:06.244Z,39.29
2022-08-07T10:34:18.450Z,40.87
2022-08-07T10:35:20.527Z,41.06
2022-08-07T10:36:38.494Z,40.00
2022-08-07T10:37:17.415Z,40.00
2022-08-07T10:38:48.374Z,38.73
2022-08-07T10:39:17.369Z,38.44
2022-08-07T10:40:17.268Z,39.41
2022-08-07T10:41:53.077Z,38.64
2022-08-07T10:42:21.270Z,39.22
2022-08-07T10:43:38.007Z,39.22
2022-08-07T10:44:16.942Z,38.64
2022-08-07T10:45:16.865Z,38.32
2022-08-07T10:46:37.802Z,37.08
2022-08-07T10:47:16.724Z,36.30
2022-08-07T10:48:37.677Z,35.61
2022-08-07T10:49:16.610Z,37.07
2022-08-07T10:50:16.529Z,37.55
2022-08-07T10:51:39.265Z,37.65
2022-08-07T10:52:16.410Z,37.65
2022-08-07T10:53:44.048Z,39.12
2022-08-07T10:54:16.256Z,39.12
2022-08-07T10:55:32.408Z,38.06
2022-08-07T10:56:37.114Z,37.76
2022-08-07T10:57:16.044Z,35.92
2022-08-07T10:58:40.363Z,37.28
2022-08-07T10:59:15.894Z,37.66
2022-08-07T11:00:39.189Z,37.20
2022-08-07T11:02:02.497Z,37.01
2022-08-07T11:02:32.795Z,37.10
2022-08-07T11:03:37.435Z,36.13
2022-08-07T11:04:31.455Z,35.64
2022-08-07T11:05:15.493Z,35.33
2022-08-07T11:06:36.418Z,35.82
2022-08-07T11:07:56.582Z,36.04
2022-08-07T11:08:36.297Z,35.25
2022-08-07T11:10:09.132Z,35.64
2022-08-07T11:10:15.159Z,35.33
2022-08-07T11:11:36.102Z,34.85
2022-08-07T11:12:15.039Z,35.63
2022-08-07T11:14:46.195Z,35.41
2022-08-07T11:14:46.401Z,35.22
2022-08-07T11:15:17.636Z,35.41
2022-08-07T11:16:35.749Z,36.19
2022-08-07T11:17:23.639Z,38.25
2022-08-07T11:18:35.593Z,38.25
2022-08-07T11:19:14.555Z,38.46
2022-08-07T11:20:14.585Z,36.54
2022-08-07T11:21:40.737Z,36.05
2022-08-07T11:22:27.437Z,34.90
2022-08-07T11:23:36.483Z,34.61
2022-08-07T11:24:14.205Z,35.00
2022-08-07T11:25:14.893Z,34.43
2022-08-07T11:26:35.060Z,34.14
2022-08-07T11:27:13.996Z,33.75
2022-08-07T11:28:34.909Z,33.96
2022-08-07T11:29:42.069Z,34.64
2022-08-07T11:30:18.346Z,35.13
2022-08-07T11:31:35.091Z,35.03
2022-08-07T11:32:13.662Z,34.55
2022-08-07T11:33:53.628Z,34.45
2022-08-07T11:34:16.315Z,33.48
2022-08-07T11:35:16.663Z,34.14
2022-08-07T11:36:34.398Z,34.82
2022-08-07T11:37:13.329Z,35.02
2022-08-07T11:38:34.228Z,36.28
2022-08-07T11:39:14.489Z,36.28
2022-08-07T11:40:19.114Z,36.47
2022-08-07T11:42:00.262Z,35.02
2022-08-07T11:42:18.619Z,35.80
2022-08-07T11:43:54.336Z,34.53
2022-08-07T11:44:14.297Z,33.44
2022-08-07T11:45:12.785Z,35.31
2022-08-07T11:46:33.704Z,35.70
2022-08-07T11:47:12.639Z,34.05
2022-08-07T11:48:33.567Z,33.34
2022-08-07T11:49:51.444Z,35.00
2022-08-07T11:50:32.391Z,35.49
2022-08-07T11:51:41.364Z,34.80
2022-08-07T11:52:12.293Z,34.80
2022-08-07T11:53:35.135Z,34.42
2022-08-07T11:54:12.175Z,34.11
2022-08-07T11:55:18.563Z,34.70
2022-08-07T11:56:33.021Z,36.07
2022-08-07T11:57:12.759Z,35.68
2022-08-07T11:58:33.416Z,35.68
2022-08-07T12:00:08.320Z,35.89
2022-08-07T12:00:19.524Z,34.14
2022-08-07T12:01:59.458Z,34.33
2022-08-07T12:02:20.717Z,35.81
2022-08-07T12:03:45.083Z,36.00
2022-08-07T12:04:11.487Z,36.69
2022-08-07T12:05:28.216Z,36.49
2022-08-07T12:06:40.020Z,34.95
2022-08-07T12:07:20.184Z,34.94
2022-08-07T12:08:34.797Z,34.55
2022-08-07T12:09:16.084Z,35.71
2022-08-07T12:10:12.574Z,37.18
2022-08-07T12:11:32.466Z,37.19
2022-08-07T12:12:12.028Z,36.12
2022-08-07T12:13:35.674Z,35.44
2022-08-07T12:14:10.826Z,34.27
2022-08-07T12:15:17.227Z,33.39
2022-08-07T12:16:31.675Z,33.28
2022-08-07T12:17:19.734Z,33.48
2022-08-07T12:18:31.545Z,34.27
2022-08-07T12:19:10.460Z,35.63
2022-08-07T12:20:20.927Z,35.34
2022-08-07T12:22:35.854Z,33.29
2022-08-07T12:22:37.700Z,32.42
2022-08-07T12:24:04.935Z,31.84
2022-08-07T12:24:38.196Z,33.61
2022-08-07T12:25:10.059Z,31.93
2022-08-07T12:26:35.457Z,31.04
2022-08-07T12:27:15.933Z,32.52
2022-08-07T12:28:31.439Z,34.47
2022-08-07T12:29:09.809Z,34.47
2022-08-07T12:30:09.735Z,31.84
2022-08-07T12:31:53.150Z,32.73
2022-08-07T12:32:12.559Z,30.67
2022-08-07T12:33:30.943Z,30.07
2022-08-07T12:34:11.086Z,31.04
2022-08-07T12:35:09.402Z,31.13
2022-08-07T12:36:32.894Z,30.93
2022-08-07T12:37:16.886Z,31.21
2022-08-07T12:38:39.099Z,32.49
2022-08-07T12:39:41.090Z,34.14
2022-08-07T12:40:23.994Z,33.86
2022-08-07T12:41:49.329Z,33.77
2022-08-07T12:42:08.948Z,31.93
2022-08-07T12:44:01.787Z,32.42
2022-08-07T12:44:12.914Z,33.01
2022-08-07T12:45:08.719Z,31.56
2022-08-07T12:46:32.781Z,30.49
2022-08-07T12:47:08.595Z,32.05
2022-08-07T12:48:41.619Z,31.25
2022-08-07T12:49:10.038Z,30.17
2022-08-07T12:50:39.147Z,30.96
2022-08-07T12:51:33.443Z,30.46